sensor_id;sensor_type;location;lat;lon;timestamp;temperature;humidity
50955;DHT22;36966;48.064;-0.792;2023-08-07T00:02:12;22.20;51.80
50955;DHT22;36966;48.064;-0.792;2023-08-07T00:04:31;22.20;51.80
50955;DHT22;36966;48.064;-0.792;2023-08-07T00:06:51;22.20;51.80
50955;DHT22;36966;48.064;-0.792;2023-08-07T00:09:10;22.20;51.80
50955;DHT22;36966;48.064;-0.792;2023-08-07T00:11:29;22.20;51.90
50955;DHT22;36966;48.064;-0.792;2023-08-07T00:13:49;22.20;51.90
50955;DHT22;36966;48.064;-0.792;2023-08-07T00:16:08;22.20;51.90
50955;DHT22;36966;48.064;-0.792;2023-08-07T00:18:29;22.20;51.90
50955;DHT22;36966;48.064;-0.792;2023-08-07T00:20:48;22.20;51.90
50955;DHT22;36966;48.064;-0.792;2023-08-07T00:23:07;22.20;51.90
50955;DHT22;36966;48.064;-0.792;2023-08-07T00:25:27;22.10;51.90
50955;DHT22;36966;48.064;-0.792;2023-08-07T00:27:46;22.10;51.90
50955;DHT22;36966;48.064;-0.792;2023-08-07T00:30:05;22.10;51.90
50955;DHT22;36966;48.064;-0.792;2023-08-07T00:32:25;22.10;52.00
50955;DHT22;36966;48.064;-0.792;2023-08-07T00:34:44;22.10;51.90
50955;DHT22;36966;48.064;-0.792;2023-08-07T00:37:04;22.10;51.90
50955;DHT22;36966;48.064;-0.792;2023-08-07T00:39:23;22.00;51.90
50955;DHT22;36966;48.064;-0.792;2023-08-07T00:41:43;22.00;51.90
50955;DHT22;36966;48.064;-0.792;2023-08-07T00:44:02;22.00;51.90
50955;DHT22;36966;48.064;-0.792;2023-08-07T00:46:21;22.00;52.00
50955;DHT22;36966;48.064;-0.792;2023-08-07T00:48:40;22.00;51.90
50955;DHT22;36966;48.064;-0.792;2023-08-07T00:51:00;22.00;52.00
50955;DHT22;36966;48.064;-0.792;2023-08-07T00:53:19;22.00;52.00
50955;DHT22;36966;48.064;-0.792;2023-08-07T00:55:38;22.00;52.00
50955;DHT22;36966;48.064;-0.792;2023-08-07T00:57:58;21.90;52.00
50955;DHT22;36966;48.064;-0.792;2023-08-07T01:00:18;21.90;52.00
50955;DHT22;36966;48.064;-0.792;2023-08-07T01:02:37;22.00;52.00
50955;DHT22;36966;48.064;-0.792;2023-08-07T01:04:57;21.90;52.10
50955;DHT22;36966;48.064;-0.792;2023-08-07T01:07:16;22.00;52.00
50955;DHT22;36966;48.064;-0.792;2023-08-07T01:09:35;21.90;52.00
50955;DHT22;36966;48.064;-0.792;2023-08-07T01:11:57;21.90;52.10
50955;DHT22;36966;48.064;-0.792;2023-08-07T01:19:05;21.80;52.00
50955;DHT22;36966;48.064;-0.792;2023-08-07T01:21:28;21.80;52.10
50955;DHT22;36966;48.064;-0.792;2023-08-07T01:23:47;21.90;52.10
50955;DHT22;36966;48.064;-0.792;2023-08-07T01:26:06;21.80;52.10
50955;DHT22;36966;48.064;-0.792;2023-08-07T01:28:36;21.80;52.10
50955;DHT22;36966;48.064;-0.792;2023-08-07T01:30:59;21.80;52.10
50955;DHT22;36966;48.064;-0.792;2023-08-07T01:35:43;21.80;52.10
50955;DHT22;36966;48.064;-0.792;2023-08-07T01:38:02;21.80;52.10
50955;DHT22;36966;48.064;-0.792;2023-08-07T01:40:22;21.80;52.10
50955;DHT22;36966;48.064;-0.792;2023-08-07T01:42:42;21.80;52.10
50955;DHT22;36966;48.064;-0.792;2023-08-07T01:45:02;21.80;52.10
50955;DHT22;36966;48.064;-0.792;2023-08-07T01:47:23;21.80;52.00
50955;DHT22;36966;48.064;-0.792;2023-08-07T01:49:42;21.80;52.10
50955;DHT22;36966;48.064;-0.792;2023-08-07T01:52:01;21.80;52.10
50955;DHT22;36966;48.064;-0.792;2023-08-07T01:54:20;21.80;52.10
50955;DHT22;36966;48.064;-0.792;2023-08-07T01:56:39;21.70;52.10
50955;DHT22;36966;48.064;-0.792;2023-08-07T01:58:59;21.70;52.20
50955;DHT22;36966;48.064;-0.792;2023-08-07T02:01:18;21.70;52.20
50955;DHT22;36966;48.064;-0.792;2023-08-07T02:03:37;21.70;52.20
50955;DHT22;36966;48.064;-0.792;2023-08-07T02:05:56;21.70;52.30
50955;DHT22;36966;48.064;-0.792;2023-08-07T02:08:16;21.70;52.30
50955;DHT22;36966;48.064;-0.792;2023-08-07T02:10:35;21.70;52.40
50955;DHT22;36966;48.064;-0.792;2023-08-07T02:12:56;21.70;52.40
50955;DHT22;36966;48.064;-0.792;2023-08-07T02:15:15;21.70;52.40
50955;DHT22;36966;48.064;-0.792;2023-08-07T02:17:35;21.70;52.50
50955;DHT22;36966;48.064;-0.792;2023-08-07T02:19:56;21.70;52.50
50955;DHT22;36966;48.064;-0.792;2023-08-07T02:22:16;21.70;52.50
50955;DHT22;36966;48.064;-0.792;2023-08-07T02:24:35;21.70;52.50
50955;DHT22;36966;48.064;-0.792;2023-08-07T02:26:54;21.70;52.60
50955;DHT22;36966;48.064;-0.792;2023-08-07T02:29:14;21.70;52.60
50955;DHT22;36966;48.064;-0.792;2023-08-07T02:31:33;21.70;52.70
50955;DHT22;36966;48.064;-0.792;2023-08-07T02:33:52;21.70;52.70
50955;DHT22;36966;48.064;-0.792;2023-08-07T02:36:11;21.70;52.70
50955;DHT22;36966;48.064;-0.792;2023-08-07T02:38:30;21.60;52.70
50955;DHT22;36966;48.064;-0.792;2023-08-07T02:40:50;21.70;52.80
50955;DHT22;36966;48.064;-0.792;2023-08-07T02:43:09;21.70;52.80
50955;DHT22;36966;48.064;-0.792;2023-08-07T02:45:28;21.60;52.90
50955;DHT22;36966;48.064;-0.792;2023-08-07T02:47:48;21.60;53.00
50955;DHT22;36966;48.064;-0.792;2023-08-07T02:50:07;21.60;53.00
50955;DHT22;36966;48.064;-0.792;2023-08-07T02:52:26;21.60;53.10
50955;DHT22;36966;48.064;-0.792;2023-08-07T02:54:46;21.50;53.20
50955;DHT22;36966;48.064;-0.792;2023-08-07T02:57:05;21.60;53.30
50955;DHT22;36966;48.064;-0.792;2023-08-07T02:59:25;21.60;53.30
50955;DHT22;36966;48.064;-0.792;2023-08-07T03:01:44;21.60;53.30
50955;DHT22;36966;48.064;-0.792;2023-08-07T03:04:03;21.60;53.30
50955;DHT22;36966;48.064;-0.792;2023-08-07T03:06:22;21.60;53.30
50955;DHT22;36966;48.064;-0.792;2023-08-07T03:08:42;21.60;53.40
50955;DHT22;36966;48.064;-0.792;2023-08-07T03:11:01;21.60;53.30
50955;DHT22;36966;48.064;-0.792;2023-08-07T03:13:21;21.60;53.40
50955;DHT22;36966;48.064;-0.792;2023-08-07T03:15:41;21.60;53.40
50955;DHT22;36966;48.064;-0.792;2023-08-07T03:18:00;21.60;53.50
50955;DHT22;36966;48.064;-0.792;2023-08-07T03:20:19;21.60;53.40
50955;DHT22;36966;48.064;-0.792;2023-08-07T03:22:39;21.60;53.50
50955;DHT22;36966;48.064;-0.792;2023-08-07T03:24:58;21.60;53.50
50955;DHT22;36966;48.064;-0.792;2023-08-07T03:27:17;21.60;53.60
50955;DHT22;36966;48.064;-0.792;2023-08-07T03:29:36;21.60;53.60
50955;DHT22;36966;48.064;-0.792;2023-08-07T03:31:55;21.50;53.60
50955;DHT22;36966;48.064;-0.792;2023-08-07T03:34:15;21.60;53.70
50955;DHT22;36966;48.064;-0.792;2023-08-07T03:36:34;21.60;53.70
50955;DHT22;36966;48.064;-0.792;2023-08-07T03:38:54;21.50;53.70
50955;DHT22;36966;48.064;-0.792;2023-08-07T03:41:13;21.50;53.70
50955;DHT22;36966;48.064;-0.792;2023-08-07T03:43:33;21.60;53.70
50955;DHT22;36966;48.064;-0.792;2023-08-07T03:45:55;21.60;53.70
50955;DHT22;36966;48.064;-0.792;2023-08-07T03:48:18;21.60;53.70
50955;DHT22;36966;48.064;-0.792;2023-08-07T03:50:37;21.60;53.80
50955;DHT22;36966;48.064;-0.792;2023-08-07T03:52:56;21.60;53.50
50955;DHT22;36966;48.064;-0.792;2023-08-07T03:55:16;21.40;53.60
50955;DHT22;36966;48.064;-0.792;2023-08-07T03:57:35;21.40;53.60
50955;DHT22;36966;48.064;-0.792;2023-08-07T03:59:54;21.50;53.60
50955;DHT22;36966;48.064;-0.792;2023-08-07T04:02:13;21.40;53.60
50955;DHT22;36966;48.064;-0.792;2023-08-07T04:04:33;21.50;53.70
50955;DHT22;36966;48.064;-0.792;2023-08-07T04:06:52;21.50;53.70
50955;DHT22;36966;48.064;-0.792;2023-08-07T04:09:11;21.50;53.80
50955;DHT22;36966;48.064;-0.792;2023-08-07T04:11:30;21.50;53.90
50955;DHT22;36966;48.064;-0.792;2023-08-07T04:13:52;21.50;53.90
50955;DHT22;36966;48.064;-0.792;2023-08-07T04:16:11;21.50;53.90
50955;DHT22;36966;48.064;-0.792;2023-08-07T04:18:31;21.50;53.90
50955;DHT22;36966;48.064;-0.792;2023-08-07T04:20:51;21.50;54.00
50955;DHT22;36966;48.064;-0.792;2023-08-07T04:23:11;21.50;53.90
50955;DHT22;36966;48.064;-0.792;2023-08-07T04:25:30;21.40;54.00
50955;DHT22;36966;48.064;-0.792;2023-08-07T04:27:50;21.50;53.90
50955;DHT22;36966;48.064;-0.792;2023-08-07T04:30:09;21.40;54.00
50955;DHT22;36966;48.064;-0.792;2023-08-07T04:32:29;21.40;54.00
50955;DHT22;36966;48.064;-0.792;2023-08-07T04:34:48;21.40;54.00
50955;DHT22;36966;48.064;-0.792;2023-08-07T04:37:07;21.40;54.10
50955;DHT22;36966;48.064;-0.792;2023-08-07T04:39:27;21.40;54.10
50955;DHT22;36966;48.064;-0.792;2023-08-07T04:41:46;21.50;54.10
50955;DHT22;36966;48.064;-0.792;2023-08-07T04:44:06;21.40;54.10
50955;DHT22;36966;48.064;-0.792;2023-08-07T04:46:26;21.40;54.20
50955;DHT22;36966;48.064;-0.792;2023-08-07T04:48:45;21.40;54.10
50955;DHT22;36966;48.064;-0.792;2023-08-07T04:51:04;21.40;54.20
50955;DHT22;36966;48.064;-0.792;2023-08-07T04:53:23;21.40;54.20
50955;DHT22;36966;48.064;-0.792;2023-08-07T04:55:43;21.40;54.20
50955;DHT22;36966;48.064;-0.792;2023-08-07T04:58:02;21.40;54.30
50955;DHT22;36966;48.064;-0.792;2023-08-07T05:00:22;21.40;54.30
50955;DHT22;36966;48.064;-0.792;2023-08-07T05:02:41;21.40;54.30
50955;DHT22;36966;48.064;-0.792;2023-08-07T05:05:01;21.40;54.30
50955;DHT22;36966;48.064;-0.792;2023-08-07T05:07:20;21.40;54.30
50955;DHT22;36966;48.064;-0.792;2023-08-07T05:09:39;21.40;54.30
50955;DHT22;36966;48.064;-0.792;2023-08-07T05:11:58;21.40;54.30
50955;DHT22;36966;48.064;-0.792;2023-08-07T05:14:18;21.40;54.40
50955;DHT22;36966;48.064;-0.792;2023-08-07T05:16:37;21.40;54.30
50955;DHT22;36966;48.064;-0.792;2023-08-07T05:18:56;21.40;54.20
50955;DHT22;36966;48.064;-0.792;2023-08-07T05:21:15;21.40;54.10
50955;DHT22;36966;48.064;-0.792;2023-08-07T05:23:34;21.40;54.00
50955;DHT22;36966;48.064;-0.792;2023-08-07T05:25:54;21.50;54.20
50955;DHT22;36966;48.064;-0.792;2023-08-07T05:28:13;21.40;54.20
50955;DHT22;36966;48.064;-0.792;2023-08-07T05:30:32;21.40;54.10
50955;DHT22;36966;48.064;-0.792;2023-08-07T05:32:52;21.50;54.20
50955;DHT22;36966;48.064;-0.792;2023-08-07T05:35:12;21.50;54.20
50955;DHT22;36966;48.064;-0.792;2023-08-07T05:37:31;21.50;54.20
50955;DHT22;36966;48.064;-0.792;2023-08-07T05:39:50;21.50;54.20
50955;DHT22;36966;48.064;-0.792;2023-08-07T05:42:10;21.50;54.10
50955;DHT22;36966;48.064;-0.792;2023-08-07T05:44:29;21.50;54.20
50955;DHT22;36966;48.064;-0.792;2023-08-07T05:46:48;21.50;54.20
50955;DHT22;36966;48.064;-0.792;2023-08-07T05:49:08;21.50;54.20
50955;DHT22;36966;48.064;-0.792;2023-08-07T05:51:27;21.50;54.20
50955;DHT22;36966;48.064;-0.792;2023-08-07T05:53:46;21.50;54.30
50955;DHT22;36966;48.064;-0.792;2023-08-07T05:56:05;21.50;54.30
50955;DHT22;36966;48.064;-0.792;2023-08-07T05:58:25;21.50;54.30
50955;DHT22;36966;48.064;-0.792;2023-08-07T06:00:44;21.50;54.30
50955;DHT22;36966;48.064;-0.792;2023-08-07T06:03:03;21.50;54.30
50955;DHT22;36966;48.064;-0.792;2023-08-07T06:05:23;21.50;54.30
50955;DHT22;36966;48.064;-0.792;2023-08-07T06:07:42;21.50;54.30
50955;DHT22;36966;48.064;-0.792;2023-08-07T06:10:01;21.50;54.30
50955;DHT22;36966;48.064;-0.792;2023-08-07T06:12:20;21.50;54.30
50955;DHT22;36966;48.064;-0.792;2023-08-07T06:14:40;21.50;54.30
50955;DHT22;36966;48.064;-0.792;2023-08-07T06:16:59;21.50;54.40
50955;DHT22;36966;48.064;-0.792;2023-08-07T06:19:20;21.50;54.30
50955;DHT22;36966;48.064;-0.792;2023-08-07T06:21:41;21.60;54.40
50955;DHT22;36966;48.064;-0.792;2023-08-07T06:24:00;21.50;54.40
50955;DHT22;36966;48.064;-0.792;2023-08-07T06:26:19;21.60;54.40
50955;DHT22;36966;48.064;-0.792;2023-08-07T06:28:39;21.50;54.40
50955;DHT22;36966;48.064;-0.792;2023-08-07T06:31:05;21.50;54.50
50955;DHT22;36966;48.064;-0.792;2023-08-07T06:33:24;21.60;54.40
50955;DHT22;36966;48.064;-0.792;2023-08-07T06:35:53;21.60;54.40
50955;DHT22;36966;48.064;-0.792;2023-08-07T06:38:12;21.60;54.40
50955;DHT22;36966;48.064;-0.792;2023-08-07T06:40:31;21.60;54.40
50955;DHT22;36966;48.064;-0.792;2023-08-07T06:42:50;21.70;54.40
50955;DHT22;36966;48.064;-0.792;2023-08-07T06:45:10;21.70;54.40
50955;DHT22;36966;48.064;-0.792;2023-08-07T06:47:29;21.70;54.40
50955;DHT22;36966;48.064;-0.792;2023-08-07T06:49:48;21.70;54.40
50955;DHT22;36966;48.064;-0.792;2023-08-07T06:52:07;21.70;54.40
50955;DHT22;36966;48.064;-0.792;2023-08-07T06:54:27;21.70;54.40
50955;DHT22;36966;48.064;-0.792;2023-08-07T06:56:46;21.70;54.40
50955;DHT22;36966;48.064;-0.792;2023-08-07T06:59:05;21.70;54.40
50955;DHT22;36966;48.064;-0.792;2023-08-07T07:01:25;21.70;54.40
50955;DHT22;36966;48.064;-0.792;2023-08-07T07:03:44;21.80;54.50
50955;DHT22;36966;48.064;-0.792;2023-08-07T07:06:05;21.70;54.50
50955;DHT22;36966;48.064;-0.792;2023-08-07T07:08:25;21.80;54.50
50955;DHT22;36966;48.064;-0.792;2023-08-07T07:10:44;21.80;54.60
50955;DHT22;36966;48.064;-0.792;2023-08-07T07:13:03;21.80;54.60
50955;DHT22;36966;48.064;-0.792;2023-08-07T07:15:23;21.90;54.80
50955;DHT22;36966;48.064;-0.792;2023-08-07T07:17:42;21.90;54.80
50955;DHT22;36966;48.064;-0.792;2023-08-07T07:20:01;22.00;54.80
50955;DHT22;36966;48.064;-0.792;2023-08-07T07:22:20;22.00;54.70
50955;DHT22;36966;48.064;-0.792;2023-08-07T07:24:40;22.00;54.80
50955;DHT22;36966;48.064;-0.792;2023-08-07T07:26:59;22.10;54.70
50955;DHT22;36966;48.064;-0.792;2023-08-07T07:29:19;22.10;54.70
50955;DHT22;36966;48.064;-0.792;2023-08-07T07:31:38;22.20;54.70
50955;DHT22;36966;48.064;-0.792;2023-08-07T07:33:57;22.20;54.60
50955;DHT22;36966;48.064;-0.792;2023-08-07T07:36:17;22.20;54.60
50955;DHT22;36966;48.064;-0.792;2023-08-07T07:38:36;22.20;54.60
50955;DHT22;36966;48.064;-0.792;2023-08-07T07:40:56;22.30;54.50
50955;DHT22;36966;48.064;-0.792;2023-08-07T07:43:15;22.30;54.50
50955;DHT22;36966;48.064;-0.792;2023-08-07T07:45:34;22.40;54.60
50955;DHT22;36966;48.064;-0.792;2023-08-07T07:47:54;22.40;54.50
50955;DHT22;36966;48.064;-0.792;2023-08-07T07:50:13;22.40;54.40
50955;DHT22;36966;48.064;-0.792;2023-08-07T07:52:33;22.50;54.40
50955;DHT22;36966;48.064;-0.792;2023-08-07T07:54:52;22.60;54.40
50955;DHT22;36966;48.064;-0.792;2023-08-07T07:57:11;22.60;54.30
50955;DHT22;36966;48.064;-0.792;2023-08-07T07:59:30;22.70;54.20
50955;DHT22;36966;48.064;-0.792;2023-08-07T08:01:50;22.70;54.10
50955;DHT22;36966;48.064;-0.792;2023-08-07T08:04:10;22.70;54.10
50955;DHT22;36966;48.064;-0.792;2023-08-07T08:06:29;22.70;54.10
50955;DHT22;36966;48.064;-0.792;2023-08-07T08:08:49;22.70;54.20
50955;DHT22;36966;48.064;-0.792;2023-08-07T08:11:08;22.80;54.10
50955;DHT22;36966;48.064;-0.792;2023-08-07T08:13:28;22.90;53.90
50955;DHT22;36966;48.064;-0.792;2023-08-07T08:15:47;22.90;53.80
50955;DHT22;36966;48.064;-0.792;2023-08-07T08:18:06;23.00;53.70
50955;DHT22;36966;48.064;-0.792;2023-08-07T08:20:26;23.00;53.60
50955;DHT22;36966;48.064;-0.792;2023-08-07T08:22:45;23.00;53.60
50955;DHT22;36966;48.064;-0.792;2023-08-07T08:25:05;23.10;53.60
50955;DHT22;36966;48.064;-0.792;2023-08-07T08:27:25;23.10;53.70
50955;DHT22;36966;48.064;-0.792;2023-08-07T08:29:45;23.10;53.70
50955;DHT22;36966;48.064;-0.792;2023-08-07T08:32:05;23.10;53.70
50955;DHT22;36966;48.064;-0.792;2023-08-07T08:34:25;23.20;53.60
50955;DHT22;36966;48.064;-0.792;2023-08-07T08:36:45;23.20;53.60
50955;DHT22;36966;48.064;-0.792;2023-08-07T08:39:04;23.20;53.50
50955;DHT22;36966;48.064;-0.792;2023-08-07T08:41:24;23.20;53.40
50955;DHT22;36966;48.064;-0.792;2023-08-07T08:43:43;23.10;53.40
50955;DHT22;36966;48.064;-0.792;2023-08-07T08:46:04;23.10;53.40
50955;DHT22;36966;48.064;-0.792;2023-08-07T08:48:24;23.10;53.00
50955;DHT22;36966;48.064;-0.792;2023-08-07T08:50:45;23.10;52.70
50955;DHT22;36966;48.064;-0.792;2023-08-07T08:53:05;23.20;52.40
50955;DHT22;36966;48.064;-0.792;2023-08-07T08:55:24;23.20;52.40
50955;DHT22;36966;48.064;-0.792;2023-08-07T08:57:44;23.20;52.40
50955;DHT22;36966;48.064;-0.792;2023-08-07T09:00:04;23.20;52.40
50955;DHT22;36966;48.064;-0.792;2023-08-07T09:02:29;23.30;52.20
50955;DHT22;36966;48.064;-0.792;2023-08-07T09:04:49;23.40;52.00
50955;DHT22;36966;48.064;-0.792;2023-08-07T09:07:09;23.40;51.80
50955;DHT22;36966;48.064;-0.792;2023-08-07T09:09:28;23.50;51.50
50955;DHT22;36966;48.064;-0.792;2023-08-07T09:11:47;23.40;51.30
50955;DHT22;36966;48.064;-0.792;2023-08-07T09:14:07;23.50;51.10
50955;DHT22;36966;48.064;-0.792;2023-08-07T09:16:28;23.50;50.80
50955;DHT22;36966;48.064;-0.792;2023-08-07T09:18:49;23.50;50.50
50955;DHT22;36966;48.064;-0.792;2023-08-07T09:21:09;23.50;50.50
50955;DHT22;36966;48.064;-0.792;2023-08-07T09:23:28;23.60;50.40
50955;DHT22;36966;48.064;-0.792;2023-08-07T09:25:47;23.60;50.50
50955;DHT22;36966;48.064;-0.792;2023-08-07T09:28:07;23.60;50.30
50955;DHT22;36966;48.064;-0.792;2023-08-07T09:30:29;23.70;50.00
50955;DHT22;36966;48.064;-0.792;2023-08-07T09:32:48;23.70;49.90
50955;DHT22;36966;48.064;-0.792;2023-08-07T09:35:08;23.80;49.50
50955;DHT22;36966;48.064;-0.792;2023-08-07T09:37:29;23.80;49.70
50955;DHT22;36966;48.064;-0.792;2023-08-07T09:39:48;23.80;49.60
50955;DHT22;36966;48.064;-0.792;2023-08-07T09:42:14;23.80;49.60
50955;DHT22;36966;48.064;-0.792;2023-08-07T09:44:36;23.90;49.00
50955;DHT22;36966;48.064;-0.792;2023-08-07T09:46:55;23.80;48.70
50955;DHT22;36966;48.064;-0.792;2023-08-07T09:49:14;23.80;48.70
50955;DHT22;36966;48.064;-0.792;2023-08-07T09:51:52;23.80;48.40
50955;DHT22;36966;48.064;-0.792;2023-08-07T09:54:11;23.80;48.80
50955;DHT22;36966;48.064;-0.792;2023-08-07T09:56:30;23.80;48.20
50955;DHT22;36966;48.064;-0.792;2023-08-07T09:58:50;23.80;48.00
50955;DHT22;36966;48.064;-0.792;2023-08-07T10:01:11;23.80;48.00
50955;DHT22;36966;48.064;-0.792;2023-08-07T10:03:31;23.70;48.30
50955;DHT22;36966;48.064;-0.792;2023-08-07T10:05:50;23.70;48.30
50955;DHT22;36966;48.064;-0.792;2023-08-07T10:08:10;23.80;48.30
50955;DHT22;36966;48.064;-0.792;2023-08-07T10:10:31;23.80;48.10
50955;DHT22;36966;48.064;-0.792;2023-08-07T10:12:51;23.80;48.30
50955;DHT22;36966;48.064;-0.792;2023-08-07T10:15:11;23.80;48.00
50955;DHT22;36966;48.064;-0.792;2023-08-07T10:17:30;23.80;48.00
50955;DHT22;36966;48.064;-0.792;2023-08-07T10:19:50;23.70;47.70
50955;DHT22;36966;48.064;-0.792;2023-08-07T10:22:09;23.70;47.50
50955;DHT22;36966;48.064;-0.792;2023-08-07T10:24:29;23.80;47.00
50955;DHT22;36966;48.064;-0.792;2023-08-07T10:26:50;23.80;47.00
50955;DHT22;36966;48.064;-0.792;2023-08-07T10:29:10;23.90;46.40
50955;DHT22;36966;48.064;-0.792;2023-08-07T10:31:30;24.00;45.80
50955;DHT22;36966;48.064;-0.792;2023-08-07T10:33:50;24.10;46.00
50955;DHT22;36966;48.064;-0.792;2023-08-07T10:36:10;24.10;45.90
50955;DHT22;36966;48.064;-0.792;2023-08-07T10:38:29;24.20;45.20
50955;DHT22;36966;48.064;-0.792;2023-08-07T10:43:26;24.20;45.40
50955;DHT22;36966;48.064;-0.792;2023-08-07T10:45:46;24.10;45.60
50955;DHT22;36966;48.064;-0.792;2023-08-07T10:48:12;24.00;45.40
50955;DHT22;36966;48.064;-0.792;2023-08-07T10:50:32;23.90;45.60
50955;DHT22;36966;48.064;-0.792;2023-08-07T10:52:51;24.00;44.90
50955;DHT22;36966;48.064;-0.792;2023-08-07T10:55:14;24.00;43.40
50955;DHT22;36966;48.064;-0.792;2023-08-07T10:57:37;24.10;44.20
50955;DHT22;36966;48.064;-0.792;2023-08-07T11:00:03;24.10;44.20
50955;DHT22;36966;48.064;-0.792;2023-08-07T11:02:28;24.20;44.70
50955;DHT22;36966;48.064;-0.792;2023-08-07T11:04:48;24.20;45.00
50955;DHT22;36966;48.064;-0.792;2023-08-07T11:07:07;24.10;45.30
50955;DHT22;36966;48.064;-0.792;2023-08-07T11:09:27;24.10;45.00
50955;DHT22;36966;48.064;-0.792;2023-08-07T11:11:47;24.00;44.90
50955;DHT22;36966;48.064;-0.792;2023-08-07T11:14:07;24.00;44.80
50955;DHT22;36966;48.064;-0.792;2023-08-07T11:16:26;23.90;45.00
50955;DHT22;36966;48.064;-0.792;2023-08-07T11:18:46;23.90;45.00
50955;DHT22;36966;48.064;-0.792;2023-08-07T11:21:06;24.00;45.00
50955;DHT22;36966;48.064;-0.792;2023-08-07T11:23:25;24.10;44.60
50955;DHT22;36966;48.064;-0.792;2023-08-07T11:25:46;24.10;44.30
50955;DHT22;36966;48.064;-0.792;2023-08-07T11:28:05;24.10;44.40
50955;DHT22;36966;48.064;-0.792;2023-08-07T11:30:27;24.20;44.30
50955;DHT22;36966;48.064;-0.792;2023-08-07T11:32:46;24.20;44.40
50955;DHT22;36966;48.064;-0.792;2023-08-07T11:35:06;24.20;44.40
50955;DHT22;36966;48.064;-0.792;2023-08-07T11:37:25;24.30;44.40
50955;DHT22;36966;48.064;-0.792;2023-08-07T11:39:45;24.30;44.10
50955;DHT22;36966;48.064;-0.792;2023-08-07T11:42:05;24.30;43.90
50955;DHT22;36966;48.064;-0.792;2023-08-07T11:44:25;24.40;43.30
50955;DHT22;36966;48.064;-0.792;2023-08-07T11:46:44;24.50;43.60
50955;DHT22;36966;48.064;-0.792;2023-08-07T11:49:03;24.50;43.80
50955;DHT22;36966;48.064;-0.792;2023-08-07T11:51:27;24.50;42.70
50955;DHT22;36966;48.064;-0.792;2023-08-07T11:53:47;24.50;42.20
50955;DHT22;36966;48.064;-0.792;2023-08-07T11:56:10;24.50;42.50
50955;DHT22;36966;48.064;-0.792;2023-08-07T11:58:34;24.60;41.00
50955;DHT22;36966;48.064;-0.792;2023-08-07T12:00:53;24.60;42.00
50955;DHT22;36966;48.064;-0.792;2023-08-07T12:05:47;24.60;42.10
50955;DHT22;36966;48.064;-0.792;2023-08-07T12:08:07;24.60;42.60
50955;DHT22;36966;48.064;-0.792;2023-08-07T12:10:26;24.60;42.00
50955;DHT22;36966;48.064;-0.792;2023-08-07T12:12:46;24.60;42.00
50955;DHT22;36966;48.064;-0.792;2023-08-07T12:15:08;24.70;41.70
50955;DHT22;36966;48.064;-0.792;2023-08-07T12:17:31;24.70;40.90
50955;DHT22;36966;48.064;-0.792;2023-08-07T12:19:50;24.70;41.60
50955;DHT22;36966;48.064;-0.792;2023-08-07T12:22:10;24.70;40.30
50955;DHT22;36966;48.064;-0.792;2023-08-07T12:24:29;24.70;40.80
50955;DHT22;36966;48.064;-0.792;2023-08-07T12:26:49;24.70;41.40
50955;DHT22;36966;48.064;-0.792;2023-08-07T12:29:08;24.70;41.70
50955;DHT22;36966;48.064;-0.792;2023-08-07T12:31:27;24.70;41.90
50955;DHT22;36966;48.064;-0.792;2023-08-07T12:33:46;24.70;42.00
50955;DHT22;36966;48.064;-0.792;2023-08-07T12:36:06;24.70;41.60
50955;DHT22;36966;48.064;-0.792;2023-08-07T12:38:27;24.70;41.80
50955;DHT22;36966;48.064;-0.792;2023-08-07T12:40:47;24.70;41.70
50955;DHT22;36966;48.064;-0.792;2023-08-07T12:43:06;24.60;41.90
50955;DHT22;36966;48.064;-0.792;2023-08-07T12:45:26;24.50;41.90
50955;DHT22;36966;48.064;-0.792;2023-08-07T12:47:45;24.50;41.90
50955;DHT22;36966;48.064;-0.792;2023-08-07T12:50:05;24.50;42.30
50955;DHT22;36966;48.064;-0.792;2023-08-07T12:52:25;24.50;41.70
50955;DHT22;36966;48.064;-0.792;2023-08-07T12:54:44;24.50;42.10
50955;DHT22;36966;48.064;-0.792;2023-08-07T12:57:04;24.40;41.40
50955;DHT22;36966;48.064;-0.792;2023-08-07T12:59:23;24.50;41.30
50955;DHT22;36966;48.064;-0.792;2023-08-07T13:01:42;24.40;41.60
50955;DHT22;36966;48.064;-0.792;2023-08-07T13:04:02;24.40;41.50
50955;DHT22;36966;48.064;-0.792;2023-08-07T13:06:23;24.40;42.00
50955;DHT22;36966;48.064;-0.792;2023-08-07T13:08:42;24.40;42.10
50955;DHT22;36966;48.064;-0.792;2023-08-07T13:11:01;24.40;42.40
50955;DHT22;36966;48.064;-0.792;2023-08-07T13:13:21;24.40;42.00
50955;DHT22;36966;48.064;-0.792;2023-08-07T13:15:40;24.30;42.40
50955;DHT22;36966;48.064;-0.792;2023-08-07T13:17:59;24.30;42.50
50955;DHT22;36966;48.064;-0.792;2023-08-07T13:20:19;24.30;41.30
50955;DHT22;36966;48.064;-0.792;2023-08-07T13:22:39;24.20;41.70
50955;DHT22;36966;48.064;-0.792;2023-08-07T13:25:00;24.30;42.10
50955;DHT22;36966;48.064;-0.792;2023-08-07T13:27:19;24.30;41.80
50955;DHT22;36966;48.064;-0.792;2023-08-07T13:29:39;24.30;41.60
50955;DHT22;36966;48.064;-0.792;2023-08-07T13:31:58;24.20;42.40
50955;DHT22;36966;48.064;-0.792;2023-08-07T13:34:17;24.30;43.40
50955;DHT22;36966;48.064;-0.792;2023-08-07T13:36:37;24.30;43.90
50955;DHT22;36966;48.064;-0.792;2023-08-07T13:38:59;24.30;43.40
50955;DHT22;36966;48.064;-0.792;2023-08-07T13:41:19;24.20;42.70
50955;DHT22;36966;48.064;-0.792;2023-08-07T13:43:38;24.20;41.60
50955;DHT22;36966;48.064;-0.792;2023-08-07T13:45:58;24.10;42.20
50955;DHT22;36966;48.064;-0.792;2023-08-07T13:48:17;24.10;41.90
50955;DHT22;36966;48.064;-0.792;2023-08-07T13:50:36;24.00;42.30
50955;DHT22;36966;48.064;-0.792;2023-08-07T13:52:57;23.90;42.80
50955;DHT22;36966;48.064;-0.792;2023-08-07T13:55:16;23.80;43.90
50955;DHT22;36966;48.064;-0.792;2023-08-07T13:57:36;23.90;44.60
50955;DHT22;36966;48.064;-0.792;2023-08-07T13:59:55;23.80;45.00
50955;DHT22;36966;48.064;-0.792;2023-08-07T14:02:15;23.90;44.70
50955;DHT22;36966;48.064;-0.792;2023-08-07T14:04:34;23.90;44.20
50955;DHT22;36966;48.064;-0.792;2023-08-07T14:06:54;23.90;43.50
50955;DHT22;36966;48.064;-0.792;2023-08-07T14:09:13;23.90;44.40
50955;DHT22;36966;48.064;-0.792;2023-08-07T14:11:33;24.00;44.60
50955;DHT22;36966;48.064;-0.792;2023-08-07T14:13:52;23.80;43.50
50955;DHT22;36966;48.064;-0.792;2023-08-07T14:16:11;23.80;43.40
50955;DHT22;36966;48.064;-0.792;2023-08-07T14:18:30;23.80;43.40
50955;DHT22;36966;48.064;-0.792;2023-08-07T14:20:49;23.90;43.20
50955;DHT22;36966;48.064;-0.792;2023-08-07T14:23:09;24.00;43.20
50955;DHT22;36966;48.064;-0.792;2023-08-07T14:25:28;24.00;44.00
50955;DHT22;36966;48.064;-0.792;2023-08-07T14:27:47;24.10;43.50
50955;DHT22;36966;48.064;-0.792;2023-08-07T14:30:07;24.00;44.50
50955;DHT22;36966;48.064;-0.792;2023-08-07T14:32:26;24.10;43.70
50955;DHT22;36966;48.064;-0.792;2023-08-07T14:34:46;24.10;44.40
50955;DHT22;36966;48.064;-0.792;2023-08-07T14:37:07;24.10;44.20
50955;DHT22;36966;48.064;-0.792;2023-08-07T14:39:26;24.00;44.90
50955;DHT22;36966;48.064;-0.792;2023-08-07T14:41:45;23.90;44.50